• Join FlightAware (Why Join?)
  • Login
  • US Flag 
01:42PM EDT


 

Airport Tracker/Info


-or-


 

Live Flight TrackerFlight Track Log ✈ DAL6055 ✈ 14-Apr-2013 ✈ KDTW - KSDF

Flight Track Log - Related Links

Times and Time Zones

All times are in EDT time to prevent confusion due to time zone crossing. See the DAL6055 flight status page for this flight to view local times or setup timezone preferences in your user account.

Time Position Orientation Groundspeed Altitude Reporting Facility
EDT Latitude Longitude Course Direction KTS MPH feet Rate Location/Type
09:18AM 42.2081 -83.3528 189° South 157 181 1,200  Level Cleveland Center
09:19AM 42.1325 -83.3692 189° South 218 251 5,200 2,640 Climbing Cleveland Center
09:21AM 42.0056 -83.3636 178° South 300 345 9,600 2,280 Climbing Cleveland Center
09:22AM 41.9222 -83.3572 177° South 295 339 11,600 1,860 Climbing Cleveland Center
09:23AM 41.8411 -83.3536 178° South 305 351 13,400 1,860 Climbing Cleveland Center
09:24AM 41.7431 -83.3467 177° South 331 381 15,400 5,280 Climbing Cleveland Center
09:25AM 41.6528 -83.3761 194° South 338 389 24,000 2,100 Climbing Cleveland Center
09:26AM 41.5683 -83.4197 201° Southwest 336 387 19,700 -960 Descending Cleveland Center
09:27AM 41.4839 -83.4603 200° South 336 387 22,100 2,100 Climbing Cleveland Center
09:28AM 41.3975 -83.5008 199° South 331 381 24,000 900 Climbing Cleveland Center
09:29AM 41.3086 -83.5467 201° Southwest 336 387 24,000  Level Cleveland Center
09:30AM 41.2158 -83.5919 200° South 347 399 24,000  Level Cleveland Center
09:31AM 41.1333 -83.6322 200° South 339 390 24,000  Level Cleveland Center
09:32AM 41.0508 -83.6753 201° Southwest 314 361 24,000  Level Cleveland Center
09:34AM 40.8678 -83.7619 200° South 302 348 24,000  Level Indianapolis Center
09:36AM 40.7878 -83.8014 200° South 304 350 24,000  Level Indianapolis Center
09:37AM 40.7072 -83.8403 200° South 306 352 24,000  Level Indianapolis Center
09:38AM 40.6128 -83.8861 200° South 308 354 24,000  Level Indianapolis Center
09:39AM 40.5314 -83.9253 200° South 309 356 24,000  Level Indianapolis Center
09:40AM 40.4492 -83.9644 200° South 310 357 24,000  Level Indianapolis Center
09:41AM 40.3669 -84.0042 200° South 313 360 24,000  Level Indianapolis Center
09:42AM 40.2844 -84.0439 200° South 314 361 24,000  Level Indianapolis Center
09:43AM 40.2047 -84.0875 203° Southwest 309 356 24,000  Level Indianapolis Center
09:44AM 40.1244 -84.1297 202° Southwest 310 357 24,000  Level Indianapolis Center
09:45AM 40.0447 -84.1717 202° Southwest 307 353 24,000  Level Indianapolis Center
09:46AM 39.9511 -84.2208 202° Southwest 310 357 24,000  Level Indianapolis Center
09:47AM 39.8711 -84.2633 202° Southwest 309 356 24,000  Level Indianapolis Center
09:48AM 39.7897 -84.3058 202° Southwest 312 359 24,000  Level Indianapolis Center
09:49AM 39.7097 -84.3475 202° Southwest 310 357 24,000  Level Indianapolis Center
09:50AM 39.6283 -84.3886 201° Southwest 310 357 24,000  Level Indianapolis Center
09:51AM 39.5472 -84.4308 202° Southwest 311 358 24,000 -480 Level Indianapolis Center
09:52AM 39.4669 -84.4725 202° Southwest 310 357 23,100 -1,020 Descending Indianapolis Center
09:53AM 39.3739 -84.5197 201° Southwest 305 351 22,000 -660 Descending Indianapolis Center
09:54AM 39.2961 -84.5592 201° Southwest 299 344 21,800 -840 Descending Indianapolis Center
09:55AM 39.2192 -84.6006 203° Southwest 297 342 20,300 -1,440 Descending Indianapolis Center
09:56AM 39.1333 -84.6333 197° South 297 342 18,900 -1,320 Descending Cincinnati TRACON
09:57AM 39.0833 -84.6667 207° Southwest 287 330 17,900 -1,200 Descending Cincinnati TRACON
09:58AM 39.0000 -84.7167 205° Southwest 277 319 16,700 -1,260 Descending Cincinnati TRACON
09:59AM 38.9500 -84.7667 218° Southwest 263 303 15,600 -1,200 Descending Cincinnati TRACON
10:00AM 38.8833 -84.8167 210° Southwest 259 298 14,300 -1,200 Descending Cincinnati TRACON
10:00AM 38.8714 -84.8439 241° Southwest 259 298 14,000 -240 Descending Indianapolis Center
10:01AM 38.8261 -84.8872 217° Southwest 249 287 14,000  Level Indianapolis Center
10:02AM 38.7603 -84.9506 217° Southwest 246 283 14,000 -780 Level Indianapolis Center
10:03AM 38.7033 -85.0050 217° Southwest 254 292 12,500 -1,020 Descending Indianapolis Center
10:04AM 38.6500 -85.0578 218° Southwest 242 278 12,000 -420 Descending Indianapolis Center
10:05AM 38.5997 -85.1058 217° Southwest 239 275 11,700 -720 Descending Indianapolis Center
10:06AM 38.5381 -85.1642 217° Southwest 236 272 10,600 -1,080 Descending Indianapolis Center
10:07AM 38.5269 -85.1758 219° Southwest 239 275 10,300 -1,500 Descending FAA TRACON SMA TRACON (SMA)
10:07AM 38.5075 -85.1961 219° Southwest 238 274 9,700 -1,680 Descending FAA TRACON SMA TRACON (SMA)
10:07AM 38.4900 -85.2100 212° Southwest 237 273 9,200 -1,680 Descending FAA TRACON SMA TRACON (SMA)
10:08AM 38.4744 -85.2267 220° Southwest 236 272 8,600 -1,980 Descending FAA TRACON SMA TRACON (SMA)
10:08AM 38.4542 -85.2456 216° Southwest 237 273 7,900 -1,800 Descending FAA TRACON SMA TRACON (SMA)
10:08AM 38.4375 -85.2606 215° Southwest 236 272 7,400 -1,680 Descending FAA TRACON SMA TRACON (SMA)
10:09AM 38.4214 -85.2758 217° Southwest 236 272 6,800 -1,980 Descending FAA TRACON SMA TRACON (SMA)
10:09AM 38.4019 -85.2950 218° Southwest 233 268 6,100 -1,800 Descending FAA TRACON SMA TRACON (SMA)
10:09AM 38.3856 -85.3094 215° Southwest 233 268 5,600 -1,380 Descending FAA TRACON SMA TRACON (SMA)
10:10AM 38.3694 -85.3250 217° Southwest 231 266 5,200 -900 Descending FAA TRACON SMA TRACON (SMA)
10:10AM 38.3503 -85.3433 217° Southwest 228 262 5,000 -480 Descending FAA TRACON SMA TRACON (SMA)
10:10AM 38.3336 -85.3594 217° Southwest 237 273 4,900 -300 Descending FAA TRACON SMA TRACON (SMA)
10:11AM 38.3189 -85.3792 226° Southwest 252 290 4,800 -600 Descending FAA TRACON SMA TRACON (SMA)
10:11AM 38.3169 -85.4122 266° West 261 300 4,500 -900 Descending FAA TRACON SMA TRACON (SMA)
10:11AM 38.3219 -85.4394 283° West 259 298 4,200 -780 Descending FAA TRACON SMA TRACON (SMA)
10:12AM 38.3264 -85.4664 282° West 254 292 4,000 -480 Descending FAA TRACON SMA TRACON (SMA)
10:12AM 38.3314 -85.4981 281° West 245 282 3,900 -180 Descending FAA TRACON SMA TRACON (SMA)
10:12AM 38.3356 -85.5231 282° West 238 274 3,900 120 Level FAA TRACON SMA TRACON (SMA)
10:13AM 38.3408 -85.5561 282° West 245 282 4,000  Climbing FAA TRACON SMA TRACON (SMA)
10:13AM 38.3450 -85.5833 281° West 255 293 3,900 -180 Descending FAA TRACON SMA TRACON (SMA)
10:13AM 38.3492 -85.6106 281° West 258 297 3,900  Level FAA TRACON SMA TRACON (SMA)
10:14AM 38.3544 -85.6442 281° West 253 291 3,900  Level FAA TRACON SMA TRACON (SMA)
10:14AM 38.3561 -85.6703 275° West 248 285 3,900 -300 Level FAA TRACON SMA TRACON (SMA)
10:14AM 38.3472 -85.6922 243° Southwest 240 276 3,700 -900 Descending FAA TRACON SMA TRACON (SMA)
10:15AM 38.3303 -85.7119 222° Southwest 218 251 3,300 -1,080 Descending FAA TRACON SMA TRACON (SMA)
10:15AM 38.3181 -85.7261 222° Southwest 199 229 3,000 -960 Descending FAA TRACON SMA TRACON (SMA)
10:15AM 38.3069 -85.7394 223° Southwest 183 211 2,700 -960 Descending FAA TRACON SMA TRACON (SMA)
10:16AM 38.2936 -85.7542 221° Southwest 167 192 2,400 -600 Descending FAA TRACON SMA TRACON (SMA)
10:16AM 38.2831 -85.7608 206° Southwest 148 170 2,300 -180 Descending FAA TRACON SMA TRACON (SMA)
10:16AM 38.2719 -85.7608 180° South 134 154 2,300 -480 Level FAA TRACON SMA TRACON (SMA)
10:17AM 38.2594 -85.7564 164° South 123 142 2,000 -780 Descending FAA TRACON SMA TRACON (SMA)
10:17AM 38.2492 -85.7528 165° South 124 143 1,800 -600 Descending FAA TRACON SMA TRACON (SMA)
10:17AM 38.2394 -85.7497 166° South 118 136 1,600 -780 Descending FAA TRACON SMA TRACON (SMA)
10:18AM 38.2275 -85.7456 165° South 117 135 1,300 -780 Descending FAA TRACON SMA TRACON (SMA)
10:18AM 38.2175 -85.7419 164° South 117 135 1,100 -600 Descending FAA TRACON SMA TRACON (SMA)
10:18AM 38.2072 -85.7383 165° South 123 142 900 -600 Descending FAA TRACON SMA TRACON (SMA)
10:19AM 38.1942 -85.7336 164° South 126 145 700 -600 Descending FAA TRACON SMA TRACON (SMA)
10:21AM 38.1741 -85.7365 297° West  Level Estimated